This is the latest recevied weather packets stored in our database for station/object K4GDX. If no packets are shown the sender has not sent any weather packets the latest 10 day(s).
| Time | Temp. | Humidity | Pressure | Rain* | Wind** | Luminosity | Snow |
|---|---|---|---|---|---|---|---|
| 1777590096 | 27.22° C | 76% | 1006.9 hPa | 0 mm | - | 26 W/m² | - |
| 1777589796 | 27.78° C | 75% | 1006.9 hPa | 0 mm | - | 56 W/m² | - |
| 1777589492 | 28.33° C | 73% | 1006.8 hPa | 0 mm | - | 60 W/m² | - |
| 1777589187 | 28.89° C | 71% | 1006.8 hPa | 0 mm | - | 84 W/m² | - |
| 1777588889 | 29.44° C | 70% | 1006.8 hPa | 0 mm | - | 176 W/m² | - |
| 1777588588 | 30° C | 67% | 1006.9 hPa | 0 mm | - | 130 W/m² | - |
| 1777588286 | 30° C | 61% | 1006.8 hPa | 0 mm | - | 93 W/m² | - |
| 1777587984 | 30.56° C | 55% | 1006.8 hPa | 0 mm | - | 121 W/m² | - |
| 1777587684 | 30.56° C | 55% | 1006.9 hPa | 0 mm | - | 155 W/m² | - |
| 1777587384 | 30.56° C | 55% | 1006.8 hPa | 0 mm | - | 279 W/m² | - |
| 1777587084 | 30.56° C | 54% | 1006.8 hPa | 0 mm | - | 139 W/m² | - |
| 1777586781 | 31.11° C | 55% | 1006.7 hPa | 0 mm | - | 353 W/m² | - |
| 1777586472 | 31.11° C | 55% | 1006.7 hPa | 0 mm | - | 362 W/m² | - |
| 1777586166 | 31.11° C | 55% | 1006.7 hPa | 0 mm | - | 415 W/m² | - |
| 1777585870 | 31.11° C | 56% | 1006.7 hPa | 0 mm | - | 345 W/m² | - |
| 1777585564 | 30.56° C | 56% | 1006.8 hPa | 0 mm | - | 411 W/m² | - |
| 1777585264 | 30.56° C | 58% | 1006.9 hPa | 0 mm | - | 380 W/m² | - |
| 1777584970 | 30.56° C | 59% | 1006.9 hPa | 0 mm | - | 497 W/m² | - |
| 1777584668 | 30.56° C | 61% | 1006.8 hPa | 0 mm | - | 573 W/m² | - |
| 1777584362 | 30° C | 67% | 1006.8 hPa | 0 mm | - | 376 W/m² | - |
| 1777584062 | 29.44° C | 67% | 1006.9 hPa | 0 mm | - | 568 W/m² | - |
| 1777583758 | 29.44° C | 68% | 1007.1 hPa | 0 mm | - | 552 W/m² | - |
| 1777583457 | 28.89° C | 70% | 1007.2 hPa | 0 mm | - | 650 W/m² | - |
| 1777583155 | 28.89° C | 68% | 1007.2 hPa | 0 mm | - | 329 W/m² | - |
| 1777582847 | 29.44° C | 68% | 1007.3 hPa | 0 mm | - | 213 W/m² | - |
* Rain latest hour (hover to see other rain measurements)
** Current wind speed in m/s (hover to see current wind gust speed)